Time;durP1;ratioP1;P1;durP2;ratioP2;P2;SDS_P1;SDS_P2;PMS_P1;PMS_P2;Temp;Humidity;BMP_temperature;BMP_pressure;BME280_temperature;BME280_humidity;BME280_pressure;Samples;Min_cycle;Max_cycle;Signal;HPM_P1;HPM_P2
2022/01/12 00:00:18;;;;;;;63.63;21.05;;;;;;;;;;5093001;28;20097;-65
2022/01/12 00:02:44;;;;;;;57.63;23.52;;;;;;;;;;5091372;28;20077;-65
2022/01/12 00:05:09;;;;;;;60.28;22.55;;;;;;;;;;5090930;28;20372;-64
2022/01/12 00:07:35;;;;;;;62.03;24.25;;;;;;;;;;5091150;28;20028;-65
2022/01/12 00:10:00;;;;;;;43.65;18.75;;;;;;;;;;5086195;28;20023;-64
2022/01/12 00:12:26;;;;;;;63.03;22.48;;;;;;;;;;5087055;28;20076;-65
2022/01/12 00:14:52;;;;;;;54.10;20.42;;;;;;;;;;5096118;28;20016;-55
2022/01/12 00:17:18;;;;;;;52.97;19.75;;;;;;;;;;5089508;28;20020;-63
2022/01/12 00:19:43;;;;;;;58.92;22.80;;;;;;;;;;5076033;28;20214;-64
2022/01/12 00:22:09;;;;;;;56.72;21.63;;;;;;;;;;5075760;28;20446;-65
2022/01/12 00:25:04;;;;;;;55.65;21.55;;;;;;;;;;5088041;28;20490;-64
2022/01/12 00:33:10;;;;;;;55.80;22.00;;;;;;;;;;5095936;28;20039;-64
2022/01/12 00:35:41;;;;;;;59.90;22.40;;;;;;;;;;5095791;28;20032;-65
2022/01/12 00:38:07;;;;;;;53.53;21.35;;;;;;;;;;5081919;28;20068;-64
2022/01/12 00:40:33;;;;;;;55.70;21.63;;;;;;;;;;5095535;28;20032;-65
2022/01/12 00:42:59;;;;;;;60.38;21.85;;;;;;;;;;5082291;28;20027;-65
2022/01/12 00:45:25;;;;;;;53.70;22.00;;;;;;;;;;5082031;28;20028;-64
2022/01/12 00:47:50;;;;;;;51.40;20.70;;;;;;;;;;5087056;28;20032;-65
2022/01/12 00:50:17;;;;;;;52.47;20.92;;;;;;;;;;5095883;28;20024;-65
2022/01/12 00:52:42;;;;;;;54.30;20.52;;;;;;;;;;5094851;28;20486;-65
2022/01/12 00:55:08;;;;;;;45.22;18.35;;;;;;;;;;5095542;28;20031;-64
2022/01/12 00:57:34;;;;;;;53.45;19.70;;;;;;;;;;5095229;28;20468;-65
2022/01/12 01:00:00;;;;;;;55.42;20.85;;;;;;;;;;5095335;28;20378;-64
2022/01/12 01:02:25;;;;;;;46.00;21.42;;;;;;;;;;5077098;28;20028;-65
2022/01/12 01:04:50;;;;;;;58.22;22.13;;;;;;;;;;5095591;28;20344;-64
2022/01/12 01:07:17;;;;;;;61.13;20.90;;;;;;;;;;5094982;28;20020;-64
2022/01/12 01:09:53;;;;;;;49.05;19.95;;;;;;;;;;5095159;28;20032;-64
2022/01/12 01:12:18;;;;;;;52.38;21.15;;;;;;;;;;5094985;28;20027;-61
2022/01/12 01:14:46;;;;;;;51.83;19.83;;;;;;;;;;5076960;28;20065;-64
2022/01/12 01:25:32;;;;;;;47.33;18.92;;;;;;;;;;5094873;28;20035;-58
2022/01/12 01:28:01;;;;;;;53.45;18.63;;;;;;;;;;5094903;28;20028;-63
2022/01/12 01:30:26;;;;;;;39.00;16.00;;;;;;;;;;5094773;28;20378;-64
2022/01/12 01:32:53;;;;;;;52.35;18.60;;;;;;;;;;5094621;28;20032;-63
2022/01/12 01:35:19;;;;;;;49.97;20.02;;;;;;;;;;5094737;28;20024;-64
2022/01/12 01:37:44;;;;;;;40.25;14.85;;;;;;;;;;5094415;28;20131;-64
2022/01/12 01:40:11;;;;;;;44.25;17.27;;;;;;;;;;5094651;28;20118;-64
2022/01/12 01:53:32;;;;;;;47.13;18.00;;;;;;;;;;5083517;28;20039;-57
2022/01/12 01:55:58;;;;;;;49.80;18.05;;;;;;;;;;5094160;28;20020;-63
2022/01/12 01:58:23;;;;;;;43.45;18.83;;;;;;;;;;5090895;28;20032;-57
2022/01/12 02:00:49;;;;;;;51.92;19.55;;;;;;;;;;5061579;28;20024;-62
2022/01/12 02:03:16;;;;;;;46.22;19.17;;;;;;;;;;5094330;28;20032;-57
2022/01/12 02:05:42;;;;;;;50.72;18.23;;;;;;;;;;5093957;28;20212;-60
2022/01/12 02:08:08;;;;;;;52.45;19.33;;;;;;;;;;5094018;28;20572;-59
2022/01/12 02:10:34;;;;;;;50.65;18.85;;;;;;;;;;5094108;28;20028;-65
2022/01/12 02:13:00;;;;;;;48.80;18.63;;;;;;;;;;5093844;28;20028;-62
2022/01/12 02:15:26;;;;;;;40.80;16.52;;;;;;;;;;5075804;28;20039;-65
2022/01/12 02:18:07;;;;;;;49.03;19.27;;;;;;;;;;5093863;28;20027;-64
2022/01/12 02:40:28;;;;;;;42.17;15.75;;;;;;;;;;5093642;28;20035;-64
2022/01/12 02:43:16;;;;;;;48.47;19.33;;;;;;;;;;5080863;28;20024;-64
2022/01/12 02:53:41;;;;;;;46.08;17.17;;;;;;;;;;5093210;28;20055;-63
2022/01/12 02:56:28;;;;;;;50.15;19.20;;;;;;;;;;5093162;28;20118;-64
2022/01/12 02:58:56;;;;;;;46.80;17.67;;;;;;;;;;5093026;28;20032;-62
2022/01/12 03:03:55;;;;;;;53.63;20.08;;;;;;;;;;5092682;28;20052;-64
2022/01/12 03:06:29;;;;;;;48.33;19.05;;;;;;;;;;5093153;28;20020;-65
2022/01/12 03:08:55;;;;;;;47.95;19.40;;;;;;;;;;5092853;28;20115;-63
2022/01/12 03:11:22;;;;;;;47.42;18.02;;;;;;;;;;5098966;28;20110;-64
2022/01/12 03:13:48;;;;;;;46.65;19.58;;;;;;;;;;5094454;28;20028;-65
2022/01/12 03:16:16;;;;;;;43.63;16.08;;;;;;;;;;5093020;28;20055;-65
2022/01/12 03:18:44;;;;;;;51.60;19.42;;;;;;;;;;5092335;28;20530;-65
2022/01/12 03:21:11;;;;;;;48.40;17.90;;;;;;;;;;5092857;28;20020;-64
2022/01/12 03:23:37;;;;;;;51.10;19.25;;;;;;;;;;5092713;28;20024;-65
2022/01/12 03:26:03;;;;;;;51.85;19.75;;;;;;;;;;5092586;28;20028;-64
2022/01/12 03:28:29;;;;;;;45.72;18.35;;;;;;;;;;5089685;28;20398;-65
2022/01/12 03:31:02;;;;;;;43.17;17.10;;;;;;;;;;5079687;28;20116;-61
2022/01/12 03:38:40;;;;;;;42.03;16.10;;;;;;;;;;5074056;28;20171;-65
2022/01/12 03:41:05;;;;;;;46.90;19.10;;;;;;;;;;5091620;28;20036;-63
2022/01/12 03:43:30;;;;;;;47.85;17.70;;;;;;;;;;5092119;28;20489;-65
2022/01/12 03:45:56;;;;;;;52.17;20.80;;;;;;;;;;5086596;28;20360;-64
2022/01/12 03:48:22;;;;;;;46.60;18.02;;;;;;;;;;5079599;28;20510;-63
2022/01/12 03:50:48;;;;;;;41.88;17.23;;;;;;;;;;5092176;28;20052;-64
2022/01/12 03:53:14;;;;;;;52.22;20.63;;;;;;;;;;5092070;28;20541;-61
2022/01/12 03:55:41;;;;;;;59.63;20.13;;;;;;;;;;5092463;28;20104;-65
2022/01/12 03:58:06;;;;;;;48.53;18.17;;;;;;;;;;5092193;28;20111;-64
2022/01/12 04:00:32;;;;;;;52.13;19.25;;;;;;;;;;5091561;28;20491;-62
2022/01/12 04:03:00;;;;;;;53.53;19.88;;;;;;;;;;5089881;28;20046;-61
2022/01/12 04:08:20;;;;;;;47.13;18.60;;;;;;;;;;5087679;28;20119;-64
2022/01/12 04:10:50;;;;;;;38.53;13.43;;;;;;;;;;5092236;28;20028;-62
2022/01/12 04:13:16;;;;;;;47.38;18.50;;;;;;;;;;5092156;28;20466;-59
2022/01/12 04:15:45;;;;;;;49.65;20.05;;;;;;;;;;5091859;28;20084;-59
2022/01/12 04:18:11;;;;;;;54.75;21.05;;;;;;;;;;5091972;28;20047;-61
2022/01/12 04:20:45;;;;;;;48.88;17.90;;;;;;;;;;5091944;28;20478;-64
2022/01/12 04:23:18;;;;;;;45.45;18.33;;;;;;;;;;5091897;28;20126;-65
2022/01/12 04:25:45;;;;;;;51.53;19.63;;;;;;;;;;5092135;28;20066;-65
2022/01/12 04:28:11;;;;;;;54.50;20.23;;;;;;;;;;5091935;28;20058;-64
2022/01/12 04:30:36;;;;;;;50.88;18.45;;;;;;;;;;5091833;28;20086;-65
2022/01/12 04:33:02;;;;;;;54.83;20.45;;;;;;;;;;5091890;28;20054;-64
2022/01/12 04:35:32;;;;;;;49.47;17.73;;;;;;;;;;5089102;28;20426;-65
2022/01/12 04:37:58;;;;;;;;;;;;;;;;;;5082759;28;20044;-62
2022/01/12 04:40:23;;;;;;;44.33;17.45;;;;;;;;;;5091848;28;19916;-62
2022/01/12 04:42:49;;;;;;;50.25;17.90;;;;;;;;;;5084632;28;20115;-65
2022/01/12 04:45:18;;;;;;;49.08;18.77;;;;;;;;;;5089865;28;20028;-64
2022/01/12 04:50:12;;;;;;;53.63;19.02;;;;;;;;;;5091979;28;20119;-64
2022/01/12 04:52:38;;;;;;;58.22;19.63;;;;;;;;;;5092786;28;20165;-65
2022/01/12 04:55:03;;;;;;;54.00;20.02;;;;;;;;;;5095711;28;20451;-64
2022/01/12 04:57:29;;;;;;;62.30;22.48;;;;;;;;;;5090193;28;20027;-64
2022/01/12 05:00:07;;;;;;;53.38;21.20;;;;;;;;;;5074906;28;20036;-64
2022/01/12 05:13:42;;;;;;;61.85;19.90;;;;;;;;;;5001247;28;20089;-65
2022/01/12 05:16:11;;;;;;;56.90;19.88;;;;;;;;;;5002848;28;20035;-64
2022/01/12 05:18:37;;;;;;;57.58;20.70;;;;;;;;;;5007560;28;20037;-65
2022/01/12 05:21:04;;;;;;;52.08;18.60;;;;;;;;;;4997041;28;20506;-65
2022/01/12 05:23:30;;;;;;;49.55;20.25;;;;;;;;;;5004597;28;20081;-64
2022/01/12 05:25:56;;;;;;;51.05;20.58;;;;;;;;;;5002017;28;20713;-64
2022/01/12 05:28:23;;;;;;;50.00;20.23;;;;;;;;;;4992890;28;20039;-65
2022/01/12 05:30:49;;;;;;;54.70;21.27;;;;;;;;;;4992856;28;20045;-64
2022/01/12 05:33:16;;;;;;;53.42;19.25;;;;;;;;;;4992135;28;20046;-64
2022/01/12 05:35:43;;;;;;;51.92;20.20;;;;;;;;;;4999120;28;20061;-62
2022/01/12 05:38:11;;;;;;;56.00;20.30;;;;;;;;;;4990597;28;20061;-63
2022/01/12 05:40:38;;;;;;;57.58;19.73;;;;;;;;;;4990549;28;20176;-62
2022/01/12 05:43:03;;;;;;;56.15;19.40;;;;;;;;;;4989687;28;20041;-63
2022/01/12 05:45:33;;;;;;;55.25;18.88;;;;;;;;;;4991226;28;20026;-64
2022/01/12 05:50:25;;;;;;;60.85;20.63;;;;;;;;;;5084939;28;20063;-61
2022/01/12 05:52:51;;;;;;;51.15;18.77;;;;;;;;;;5085178;28;20108;-63
2022/01/12 05:55:16;;;;;;;38.30;15.35;;;;;;;;;;5088782;28;20058;-65
2022/01/12 05:57:42;;;;;;;50.13;18.63;;;;;;;;;;5089251;28;20119;-65
2022/01/12 06:00:10;;;;;;;59.60;19.75;;;;;;;;;;5094052;28;20038;-65
2022/01/12 06:02:36;;;;;;;55.70;18.35;;;;;;;;;;5081527;28;20385;-65
2022/01/12 06:05:03;;;;;;;52.33;17.65;;;;;;;;;;5086341;28;20040;-64
2022/01/12 06:07:28;;;;;;;47.75;18.60;;;;;;;;;;5062413;28;20375;-64
2022/01/12 06:09:54;;;;;;;50.42;19.23;;;;;;;;;;5082332;28;20081;-64
2022/01/12 06:12:19;;;;;;;50.45;19.75;;;;;;;;;;5087260;28;20043;-65
2022/01/12 06:14:45;;;;;;;51.47;19.60;;;;;;;;;;5091275;28;20064;-64
2022/01/12 06:17:11;;;;;;;51.47;18.58;;;;;;;;;;5092276;28;20024;-65
2022/01/12 06:19:37;;;;;;;52.40;19.40;;;;;;;;;;5075105;28;20107;-65
2022/01/12 06:22:03;;;;;;;54.60;19.92;;;;;;;;;;5073290;28;20115;-65
2022/01/12 06:24:31;;;;;;;46.70;18.55;;;;;;;;;;5077276;28;20032;-61
2022/01/12 06:26:57;;;;;;;56.35;18.77;;;;;;;;;;5080075;28;20040;-60
2022/01/12 06:29:27;;;;;;;48.80;18.15;;;;;;;;;;5075917;28;20071;-64
2022/01/12 06:31:56;;;;;;;54.78;18.40;;;;;;;;;;5091208;28;20047;-63
2022/01/12 06:34:22;;;;;;;47.55;17.63;;;;;;;;;;5089576;28;20031;-64
2022/01/12 06:36:48;;;;;;;46.75;17.20;;;;;;;;;;5093309;28;20506;-65
2022/01/12 06:39:17;;;;;;;48.15;18.58;;;;;;;;;;5093375;28;20024;-65
2022/01/12 06:41:44;;;;;;;56.78;20.35;;;;;;;;;;5093312;28;20046;-64
2022/01/12 06:44:14;;;;;;;59.05;21.17;;;;;;;;;;5084700;28;20031;-63
2022/01/12 06:46:40;;;;;;;59.10;21.33;;;;;;;;;;5087405;28;20040;-65
2022/01/12 06:49:05;;;;;;;50.05;17.10;;;;;;;;;;5093434;28;20027;-65
2022/01/12 06:51:31;;;;;;;56.50;19.20;;;;;;;;;;5086255;28;20115;-64
2022/01/12 06:53:56;;;;;;;53.53;19.13;;;;;;;;;;5089719;28;20031;-64
2022/01/12 06:56:22;;;;;;;50.92;18.38;;;;;;;;;;5092790;28;20036;-65
2022/01/12 06:58:48;;;;;;;54.55;19.88;;;;;;;;;;5092942;28;20028;-64
2022/01/12 07:01:13;;;;;;;55.80;21.60;;;;;;;;;;5089448;28;20409;-64
2022/01/12 07:03:39;;;;;;;59.58;19.70;;;;;;;;;;5080064;28;20086;-64
2022/01/12 07:06:05;;;;;;;48.33;18.33;;;;;;;;;;5090685;28;20372;-64
2022/01/12 07:08:36;;;;;;;53.03;21.08;;;;;;;;;;5092778;28;20065;-65
2022/01/12 07:11:02;;;;;;;61.85;20.05;;;;;;;;;;5087929;28;20390;-62
2022/01/12 07:13:27;;;;;;;57.22;21.33;;;;;;;;;;5088569;28;20032;-62
2022/01/12 07:15:52;;;;;;;65.65;23.08;;;;;;;;;;5074687;28;20028;-63
2022/01/12 07:18:21;;;;;;;53.53;21.85;;;;;;;;;;5081418;28;20116;-64
2022/01/12 07:20:47;;;;;;;58.53;22.77;;;;;;;;;;5072688;28;20048;-64
2022/01/12 07:23:12;;;;;;;53.78;19.98;;;;;;;;;;5095976;28;20161;-63
2022/01/12 07:25:38;;;;;;;51.95;20.27;;;;;;;;;;5077442;28;20024;-65
2022/01/12 07:28:04;;;;;;;53.97;20.05;;;;;;;;;;5092741;28;20170;-60
2022/01/12 07:30:29;;;;;;;60.42;21.20;;;;;;;;;;5095740;28;20019;-63
2022/01/12 07:32:55;;;;;;;61.13;21.52;;;;;;;;;;5092621;28;20111;-64
2022/01/12 07:35:21;;;;;;;65.28;21.55;;;;;;;;;;5092526;28;20031;-65
2022/01/12 07:37:47;;;;;;;52.78;20.60;;;;;;;;;;5091959;28;20192;-65
2022/01/12 07:40:12;;;;;;;55.22;21.40;;;;;;;;;;5059185;28;20031;-65
2022/01/12 07:42:38;;;;;;;67.03;22.08;;;;;;;;;;5082150;28;20032;-65
2022/01/12 07:45:04;;;;;;;60.08;21.95;;;;;;;;;;5072006;28;20039;-65
2022/01/12 07:47:31;;;;;;;62.92;20.77;;;;;;;;;;5085071;28;20024;-65
2022/01/12 07:49:59;;;;;;;57.95;22.40;;;;;;;;;;5072124;28;20337;-65
2022/01/12 07:52:25;;;;;;;62.00;20.05;;;;;;;;;;5083123;28;20059;-64
2022/01/12 07:54:51;;;;;;;66.15;21.77;;;;;;;;;;5090249;28;20032;-65
2022/01/12 07:57:16;;;;;;;55.10;19.92;;;;;;;;;;5084501;28;20028;-64
2022/01/12 07:59:42;;;;;;;56.22;20.05;;;;;;;;;;5081844;28;20488;-63
2022/01/12 08:02:08;;;;;;;57.83;20.30;;;;;;;;;;5091825;28;20035;-65
2022/01/12 08:04:34;;;;;;;54.33;19.63;;;;;;;;;;5087879;28;20020;-64
2022/01/12 08:06:59;;;;;;;58.85;19.95;;;;;;;;;;5078845;28;20433;-64
2022/01/12 08:09:25;;;;;;;59.53;20.70;;;;;;;;;;5086658;28;20038;-63
2022/01/12 08:11:50;;;;;;;53.17;18.98;;;;;;;;;;5091934;28;20046;-61
2022/01/12 08:14:16;;;;;;;58.45;21.40;;;;;;;;;;5092271;28;20103;-65
2022/01/12 08:16:42;;;;;;;57.70;20.00;;;;;;;;;;5092285;28;20031;-63
2022/01/12 08:19:08;;;;;;;58.00;19.70;;;;;;;;;;5092079;28;20490;-64
2022/01/12 08:21:34;;;;;;;56.95;20.55;;;;;;;;;;5084485;28;20063;-62
2022/01/12 08:23:59;;;;;;;60.90;20.00;;;;;;;;;;5084771;28;20028;-63
2022/01/12 08:26:25;;;;;;;53.95;19.20;;;;;;;;;;5092277;28;20047;-65
2022/01/12 08:28:51;;;;;;;49.47;17.48;;;;;;;;;;5095297;28;20466;-65
2022/01/12 08:31:17;;;;;;;53.78;17.98;;;;;;;;;;5086350;28;20043;-64
2022/01/12 08:33:44;;;;;;;59.58;18.77;;;;;;;;;;5082436;28;20505;-63
2022/01/12 08:36:09;;;;;;;56.13;20.05;;;;;;;;;;5087951;28;20024;-61
2022/01/12 08:38:35;;;;;;;55.38;20.23;;;;;;;;;;5095866;28;20035;-64
2022/01/12 08:41:00;;;;;;;49.30;18.40;;;;;;;;;;5077596;28;20028;-64
2022/01/12 08:43:26;;;;;;;55.35;20.58;;;;;;;;;;5096197;28;20374;-64
2022/01/12 08:45:53;;;;;;;54.58;19.48;;;;;;;;;;5095051;28;20028;-64
2022/01/12 08:48:20;;;;;;;62.30;20.85;;;;;;;;;;5077563;28;20444;-63
2022/01/12 08:50:45;;;;;;;54.85;18.65;;;;;;;;;;5089014;28;20025;-63
2022/01/12 08:53:10;;;;;;;51.45;19.27;;;;;;;;;;5084908;28;20032;-63
2022/01/12 08:55:36;;;;;;;58.13;18.10;;;;;;;;;;5095488;28;20131;-62
2022/01/12 08:58:02;;;;;;;50.47;18.25;;;;;;;;;;5092869;28;20085;-64
2022/01/12 09:00:28;;;;;;;54.53;19.67;;;;;;;;;;5079306;28;20035;-60
2022/01/12 09:02:54;;;;;;;59.58;19.85;;;;;;;;;;5092659;28;20103;-58
2022/01/12 09:05:19;;;;;;;58.00;18.23;;;;;;;;;;5095058;28;20082;-64
2022/01/12 09:07:45;;;;;;;62.78;20.23;;;;;;;;;;5102710;28;20107;-62
2022/01/12 09:10:11;;;;;;;54.50;19.50;;;;;;;;;;5095097;28;20111;-62
2022/01/12 09:12:36;;;;;;;53.15;19.27;;;;;;;;;;5094893;28;20031;-64
2022/01/12 09:15:07;;;;;;;53.47;18.50;;;;;;;;;;5095160;28;20107;-62
2022/01/12 09:17:33;;;;;;;57.63;19.42;;;;;;;;;;5095362;28;20364;-59
2022/01/12 09:19:58;;;;;;;53.42;18.38;;;;;;;;;;5094585;28;20073;-58
2022/01/12 09:22:24;;;;;;;51.53;18.75;;;;;;;;;;5076848;28;20442;-59
2022/01/12 09:24:49;;;;;;;60.60;17.77;;;;;;;;;;5094742;28;20035;-65
2022/01/12 09:27:19;;;;;;;51.13;18.23;;;;;;;;;;5094451;28;20073;-64
2022/01/12 09:29:46;;;;;;;58.47;19.37;;;;;;;;;;5088700;28;20044;-64
2022/01/12 09:32:12;;;;;;;51.53;17.00;;;;;;;;;;5084916;28;20292;-64
2022/01/12 09:34:37;;;;;;;67.22;19.50;;;;;;;;;;5068120;28;20028;-65
2022/01/12 09:37:03;;;;;;;60.90;20.00;;;;;;;;;;5087727;28;20043;-64
2022/01/12 09:39:29;;;;;;;57.20;18.63;;;;;;;;;;5093729;28;20032;-63
2022/01/12 09:41:55;;;;;;;59.78;20.80;;;;;;;;;;5094598;28;20024;-62
2022/01/12 09:44:28;;;;;;;56.08;18.27;;;;;;;;;;5094671;28;20028;-61
2022/01/12 09:46:54;;;;;;;59.03;19.38;;;;;;;;;;5094391;28;20030;-63
2022/01/12 09:49:19;;;;;;;63.50;20.60;;;;;;;;;;5089121;28;20103;-65
2022/01/12 09:51:45;;;;;;;55.55;18.92;;;;;;;;;;5088757;28;20111;-63
2022/01/12 09:54:12;;;;;;;64.25;22.40;;;;;;;;;;5080725;28;20030;-63
2022/01/12 09:56:37;;;;;;;68.68;22.00;;;;;;;;;;5094450;28;20031;-63
2022/01/12 09:59:03;;;;;;;54.40;18.17;;;;;;;;;;5078489;28;20024;-62
2022/01/12 10:01:39;;;;;;;60.85;20.02;;;;;;;;;;5074375;28;20021;-63
2022/01/12 10:04:15;;;;;;;59.42;19.35;;;;;;;;;;5073792;28;20024;-62
2022/01/12 10:06:45;;;;;;;65.97;20.63;;;;;;;;;;5088904;28;20103;-65
2022/01/12 10:09:12;;;;;;;69.63;19.53;;;;;;;;;;5082533;28;20378;-63
2022/01/12 10:12:04;;;;;;;77.45;22.38;;;;;;;;;;5093958;28;20028;-63
2022/01/12 10:14:55;;;;;;;58.97;19.15;;;;;;;;;;5081850;28;20063;-65
2022/01/12 10:17:43;;;;;;;66.22;18.13;;;;;;;;;;5088074;28;20531;-63
2022/01/12 10:20:08;;;;;;;61.95;20.05;;;;;;;;;;5073058;28;20027;-65
2022/01/12 10:22:35;;;;;;;58.08;17.83;;;;;;;;;;5093222;28;20081;-63
2022/01/12 10:25:12;;;;;;;62.42;20.77;;;;;;;;;;5090881;28;20024;-66
2022/01/12 10:27:41;;;;;;;61.50;19.88;;;;;;;;;;5086468;28;20025;-63
2022/01/12 10:30:07;;;;;;;70.88;21.45;;;;;;;;;;5088051;28;20034;-62
2022/01/12 10:32:33;;;;;;;64.90;20.52;;;;;;;;;;5093160;28;20036;-64
2022/01/12 10:35:00;;;;;;;65.80;20.83;;;;;;;;;;5093203;28;20106;-65
2022/01/12 10:37:26;;;;;;;59.38;18.30;;;;;;;;;;5093216;28;20134;-64
2022/01/12 10:39:54;;;;;;;62.40;18.85;;;;;;;;;;5093388;28;20042;-65
2022/01/12 10:42:25;;;;;;;61.40;18.80;;;;;;;;;;5093758;28;20449;-62
2022/01/12 10:45:01;;;;;;;62.88;19.48;;;;;;;;;;5093466;28;20115;-61
2022/01/12 10:47:29;;;;;;;56.38;16.60;;;;;;;;;;5087750;28;20027;-63
2022/01/12 10:49:55;;;;;;;55.60;17.25;;;;;;;;;;5092195;28;20046;-64
2022/01/12 10:52:26;;;;;;;57.78;17.15;;;;;;;;;;5093275;28;20012;-60
2022/01/12 10:54:53;;;;;;;59.35;17.92;;;;;;;;;;5093155;28;20062;-61
2022/01/12 10:57:28;;;;;;;59.22;16.65;;;;;;;;;;5093121;28;20019;-56
2022/01/12 11:00:18;;;;;;;51.20;15.10;;;;;;;;;;5090164;28;20036;-61
2022/01/12 11:02:44;;;;;;;64.20;18.50;;;;;;;;;;5073408;28;20039;-63
2022/01/12 11:05:09;;;;;;;54.85;18.10;;;;;;;;;;5072735;28;20547;-63
2022/01/12 11:07:35;;;;;;;54.25;17.13;;;;;;;;;;5073167;28;20052;-64
2022/01/12 11:10:03;;;;;;;50.45;16.95;;;;;;;;;;5072671;28;20020;-64
2022/01/12 11:12:29;;;;;;;58.20;17.80;;;;;;;;;;5075163;28;20064;-63
2022/01/12 11:14:55;;;;;;;57.05;17.40;;;;;;;;;;5072849;28;20055;-65
2022/01/12 11:17:21;;;;;;;148.95;48.55;;;;;;;;;;5079173;28;20016;-63
2022/01/12 11:20:03;;;;;;;63.90;16.52;;;;;;;;;;5092656;28;20032;-63
2022/01/12 11:22:35;;;;;;;49.45;15.77;;;;;;;;;;5072281;28;20035;-64
2022/01/12 11:25:00;;;;;;;54.83;18.67;;;;;;;;;;5088697;28;20028;-64
2022/01/12 11:27:26;;;;;;;51.13;17.10;;;;;;;;;;5092488;28;20497;-65
2022/01/12 11:29:51;;;;;;;58.75;16.63;;;;;;;;;;5092619;28;20028;-65
2022/01/12 11:32:23;;;;;;;48.97;15.30;;;;;;;;;;5091824;28;20035;-64
2022/01/12 11:35:03;;;;;;;63.72;21.45;;;;;;;;;;5092439;28;20020;-63
2022/01/12 11:37:28;;;;;;;70.60;20.30;;;;;;;;;;5083003;28;20068;-63
2022/01/12 11:40:05;;;;;;;79.72;23.33;;;;;;;;;;5080270;28;20059;-62
2022/01/12 11:42:37;;;;;;;81.00;23.02;;;;;;;;;;5091814;28;20071;-63
2022/01/12 11:45:04;;;;;;;69.45;18.73;;;;;;;;;;5072119;28;20116;-63
2022/01/12 11:47:31;;;;;;;80.93;23.30;;;;;;;;;;5072348;28;20040;-64
2022/01/12 11:49:57;;;;;;;67.82;19.38;;;;;;;;;;5072165;28;20035;-63
2022/01/12 11:52:26;;;;;;;65.95;19.52;;;;;;;;;;5072375;28;20040;-63
2022/01/12 11:55:07;;;;;;;49.00;16.15;;;;;;;;;;5086569;28;20516;-64
2022/01/12 11:57:38;;;;;;;65.88;20.10;;;;;;;;;;5088178;28;20517;-61
2022/01/12 12:00:13;;;;;;;65.80;19.98;;;;;;;;;;5085007;28;20486;-63
2022/01/12 12:02:44;;;;;;;68.88;22.35;;;;;;;;;;5084924;28;20043;-64
2022/01/12 12:05:16;;;;;;;76.03;20.67;;;;;;;;;;5096316;28;20546;-64
2022/01/12 12:08:03;;;;;;;69.55;19.77;;;;;;;;;;5096586;28;20039;-64
2022/01/12 12:10:32;;;;;;;86.25;26.63;;;;;;;;;;5090899;28;20107;-58
2022/01/12 12:12:58;;;;;;;87.82;23.83;;;;;;;;;;5094386;28;20104;-59
2022/01/12 12:15:26;;;;;;;75.65;19.23;;;;;;;;;;5095383;28;20023;-64
2022/01/12 12:17:54;;;;;;;69.72;20.30;;;;;;;;;;5083638;28;20115;-64
2022/01/12 12:20:22;;;;;;;70.43;17.80;;;;;;;;;;5076992;28;20024;-61
2022/01/12 12:22:49;;;;;;;82.43;23.15;;;;;;;;;;5092354;28;20102;-61
2022/01/12 12:25:20;;;;;;;67.72;17.25;;;;;;;;;;5090192;28;20377;-63
2022/01/12 12:27:51;;;;;;;61.88;16.65;;;;;;;;;;5092955;28;20039;-63
2022/01/12 12:30:19;;;;;;;75.07;18.65;;;;;;;;;;5095649;28;20378;-64
2022/01/12 12:32:48;;;;;;;73.57;18.45;;;;;;;;;;5088050;28;20032;-64
2022/01/12 12:35:27;;;;;;;60.33;15.10;;;;;;;;;;5095886;28;20078;-64
2022/01/12 12:38:01;;;;;;;77.63;16.98;;;;;;;;;;5089217;28;20398;-64
2022/01/12 12:40:38;;;;;;;147.82;53.17;;;;;;;;;;5095610;28;20535;-63
2022/01/12 12:43:18;;;;;;;113.13;38.83;;;;;;;;;;5085091;28;20067;-60
2022/01/12 12:45:54;;;;;;;81.30;21.67;;;;;;;;;;5095622;28;20501;-63
2022/01/12 12:48:39;;;;;;;70.68;21.85;;;;;;;;;;5095942;28;20028;-62
2022/01/12 12:51:07;;;;;;;66.50;17.85;;;;;;;;;;5095775;28;20028;-61
2022/01/12 12:53:35;;;;;;;127.95;28.75;;;;;;;;;;5095418;28;20112;-61
2022/01/12 12:56:04;;;;;;;104.28;27.00;;;;;;;;;;5087570;28;20027;-62
2022/01/12 12:58:30;;;;;;;114.32;23.08;;;;;;;;;;5057088;28;20016;-64
2022/01/12 13:01:13;;;;;;;84.53;21.35;;;;;;;;;;5075513;28;20028;-63
2022/01/12 13:03:46;;;;;;;81.30;18.45;;;;;;;;;;5091857;28;20052;-64
2022/01/12 13:06:26;;;;;;;74.60;19.58;;;;;;;;;;5095188;28;20056;-62
2022/01/12 13:08:53;;;;;;;85.32;17.52;;;;;;;;;;5095061;28;20025;-61
2022/01/12 13:11:19;;;;;;;67.13;16.55;;;;;;;;;;5094971;28;20028;-66
2022/01/12 13:13:55;;;;;;;82.47;18.80;;;;;;;;;;5093735;28;20027;-66
2022/01/12 13:16:20;;;;;;;91.95;19.83;;;;;;;;;;5094483;28;20027;-66
2022/01/12 13:18:49;;;;;;;84.45;19.58;;;;;;;;;;5082060;28;20020;-65
2022/01/12 13:21:16;;;;;;;88.70;20.50;;;;;;;;;;5094956;28;20028;-66
2022/01/12 13:23:49;;;;;;;85.95;20.13;;;;;;;;;;5076759;28;20020;-66
2022/01/12 13:26:17;;;;;;;90.10;20.20;;;;;;;;;;5094774;28;20024;-62
2022/01/12 13:28:46;;;;;;;121.82;25.40;;;;;;;;;;5095046;28;20138;-66
2022/01/12 13:31:14;;;;;;;82.07;18.33;;;;;;;;;;5094777;28;20093;-62
2022/01/12 13:33:47;;;;;;;77.28;17.98;;;;;;;;;;5094682;28;20092;-63
2022/01/12 13:36:26;;;;;;;77.10;17.83;;;;;;;;;;5094437;28;20079;-63
2022/01/12 13:38:54;;;;;;;72.32;16.92;;;;;;;;;;5094880;28;20031;-64
2022/01/12 13:41:31;;;;;;;81.68;17.98;;;;;;;;;;5094439;28;20055;-63
2022/01/12 13:44:01;;;;;;;87.38;19.40;;;;;;;;;;5087051;28;20035;-63
2022/01/12 13:46:35;;;;;;;74.40;18.50;;;;;;;;;;5091039;28;20024;-64
2022/01/12 13:51:43;;;;;;;60.83;16.42;;;;;;;;;;5088678;28;20054;-63
2022/01/12 13:54:14;;;;;;;77.75;18.90;;;;;;;;;;5092481;28;20036;-63
2022/01/12 13:56:43;;;;;;;82.25;18.25;;;;;;;;;;5076788;28;20031;-63
2022/01/12 13:59:10;;;;;;;86.30;18.13;;;;;;;;;;5090668;28;20470;-62
2022/01/12 14:01:38;;;;;;;61.35;16.98;;;;;;;;;;5094200;28;20027;-63
2022/01/12 14:04:14;;;;;;;68.88;16.63;;;;;;;;;;5093059;28;20085;-62
2022/01/12 14:06:47;;;;;;;78.35;19.60;;;;;;;;;;5093754;28;20489;-62
2022/01/12 14:09:26;;;;;;;72.93;18.95;;;;;;;;;;5094071;28;20036;-61
2022/01/12 14:11:53;;;;;;;72.50;18.30;;;;;;;;;;5083987;28;20039;-62
2022/01/12 14:14:19;;;;;;;80.07;21.13;;;;;;;;;;5078897;28;20394;-63
2022/01/12 14:16:46;;;;;;;68.15;18.55;;;;;;;;;;5093307;28;20032;-62
2022/01/12 14:19:12;;;;;;;82.10;21.00;;;;;;;;;;5093169;28;20032;-64
2022/01/12 14:21:38;;;;;;;72.35;18.08;;;;;;;;;;5089516;28;20390;-63
2022/01/12 14:24:11;;;;;;;71.10;19.48;;;;;;;;;;5088196;28;20078;-62
2022/01/12 14:26:40;;;;;;;84.30;19.98;;;;;;;;;;5085164;28;20044;-62
2022/01/12 14:29:12;;;;;;;74.07;19.27;;;;;;;;;;5070020;28;20031;-59
2022/01/12 14:31:39;;;;;;;70.05;17.95;;;;;;;;;;5090253;28;20057;-62
2022/01/12 14:34:05;;;;;;;68.03;16.88;;;;;;;;;;5081470;28;20523;-59
2022/01/12 14:36:31;;;;;;;77.03;21.30;;;;;;;;;;5093345;28;20119;-56
2022/01/12 14:38:56;;;;;;;95.50;29.45;;;;;;;;;;5093419;28;20028;-59
2022/01/12 14:41:22;;;;;;;86.45;22.15;;;;;;;;;;5093731;28;20028;-60
2022/01/12 14:43:49;;;;;;;77.25;22.67;;;;;;;;;;5081713;28;20031;-60
2022/01/12 14:46:16;;;;;;;77.75;22.73;;;;;;;;;;5080921;28;20024;-60
2022/01/12 14:48:41;;;;;;;76.03;20.60;;;;;;;;;;5085668;28;20035;-58
2022/01/12 14:51:07;;;;;;;111.20;35.53;;;;;;;;;;5088579;28;20032;-60
2022/01/12 14:53:33;;;;;;;104.97;34.60;;;;;;;;;;5079909;28;20051;-60
2022/01/12 14:56:00;;;;;;;89.28;30.35;;;;;;;;;;5088272;28;20029;-59
2022/01/12 14:58:28;;;;;;;67.32;22.80;;;;;;;;;;5084348;28;20031;-60
2022/01/12 15:00:54;;;;;;;71.18;19.83;;;;;;;;;;5091315;28;20024;-60
2022/01/12 15:03:22;;;;;;;62.97;17.92;;;;;;;;;;5087985;28;20032;-60
2022/01/12 15:05:48;;;;;;;60.28;18.48;;;;;;;;;;5086380;28;20021;-64
2022/01/12 15:08:16;;;;;;;63.10;20.38;;;;;;;;;;5091384;28;20028;-63
2022/01/12 15:10:43;;;;;;;67.00;19.85;;;;;;;;;;5089337;28;20111;-64
2022/01/12 15:15:49;;;;;;;63.65;18.50;;;;;;;;;;5092775;28;20024;-62
2022/01/12 15:18:15;;;;;;;52.90;16.00;;;;;;;;;;5093019;28;20036;-63
2022/01/12 15:20:41;;;;;;;47.20;15.13;;;;;;;;;;5074543;28;20034;-62
2022/01/12 15:23:06;;;;;;;67.07;25.70;;;;;;;;;;5092602;28;20081;-59
2022/01/12 15:25:32;;;;;;;41.53;17.52;;;;;;;;;;5083782;28;20036;-63
2022/01/12 15:28:00;;;;;;;49.88;17.85;;;;;;;;;;5088216;28;20040;-63
2022/01/12 15:30:25;;;;;;;105.78;36.78;;;;;;;;;;5082903;28;20032;-62
2022/01/12 15:32:53;;;;;;;30.05;12.55;;;;;;;;;;5078732;28;20124;-61
2022/01/12 15:35:19;;;;;;;32.33;12.15;;;;;;;;;;5082122;28;20118;-64
2022/01/12 15:37:46;;;;;;;21.50;8.57;;;;;;;;;;5091470;28;20175;-61
2022/01/12 15:40:13;;;;;;;52.25;26.35;;;;;;;;;;5072870;28;20028;-60
2022/01/12 15:42:38;;;;;;;44.42;19.10;;;;;;;;;;5072372;28;20021;-59
2022/01/12 15:45:06;;;;;;;39.38;18.13;;;;;;;;;;5081049;28;20028;-60